createdAt,value
2022-10-29T07:08:45.818Z,100609.53
2022-10-29T07:11:14.319Z,100607.44
2022-10-29T07:13:42.883Z,100612.28
2022-10-29T07:16:11.544Z,100609.41
2022-10-29T07:18:40.145Z,100615.53
2022-10-29T07:21:09.745Z,100619.94
2022-10-29T07:24:17.708Z,100617.25
2022-10-29T07:26:47.622Z,100613.75
2022-10-29T07:29:16.268Z,100616.22
2022-10-29T07:31:44.670Z,100617.56
2022-10-29T07:34:13.805Z,100618.41
2022-10-29T07:36:42.191Z,100626.16
2022-10-29T07:39:10.650Z,100621.19
2022-10-29T07:41:39.023Z,100646.22
2022-10-29T07:44:08.748Z,100621.97
2022-10-29T07:46:37.321Z,100624.66
2022-10-29T07:49:05.724Z,100615.38
2022-10-29T07:51:34.317Z,100618.59
2022-10-29T07:54:02.770Z,100638.88
2022-10-29T07:56:31.258Z,100619.97
2022-10-29T07:58:59.718Z,100624.84
2022-10-29T08:01:29.681Z,100633.09
2022-10-29T08:03:58.108Z,100647.56
2022-10-29T08:06:26.537Z,100645.22
2022-10-29T08:08:56.121Z,100644.41
2022-10-29T08:11:24.581Z,100614.34
2022-10-29T08:13:52.982Z,100614.91
2022-10-29T08:16:21.461Z,100620.81
2022-10-29T08:18:51.377Z,100646.44
2022-10-29T08:21:20.370Z,100621.47
2022-10-29T08:23:48.856Z,100622.03
2022-10-29T08:26:17.329Z,100616.22
2022-10-29T08:28:45.771Z,100618.19
2022-10-29T08:31:14.264Z,100620.34
2022-10-29T08:33:42.661Z,100621.50
2022-10-29T08:36:12.497Z,100619.97
2022-10-29T08:38:40.924Z,100623.97
2022-10-29T08:41:36.657Z,100618.16
2022-10-29T08:44:49.823Z,100624.09
2022-10-29T08:47:20.812Z,100628.19
2022-10-29T08:50:03.792Z,100626.66
2022-10-29T08:52:48.229Z,100631.03
2022-10-29T08:55:34.965Z,100626.00
2022-10-29T08:58:14.676Z,100629.56
2022-10-29T09:00:44.594Z,100642.19
2022-10-29T09:03:14.168Z,100630.00
2022-10-29T09:05:57.532Z,100631.66
2022-10-29T09:08:45.748Z,100620.50
2022-10-29T09:11:36.753Z,100622.69
2022-10-29T09:14:28.529Z,100626.00
2022-10-29T09:17:03.680Z,100628.72
2022-10-29T09:19:52.846Z,100616.75
2022-10-29T09:22:29.995Z,100624.81
2022-10-29T09:25:14.987Z,100635.31
2022-10-29T09:27:57.548Z,100636.19
2022-10-29T09:30:30.293Z,100628.00
2022-10-29T09:33:05.048Z,100621.91
2022-10-29T09:35:41.094Z,100615.81
2022-10-29T09:38:18.581Z,100610.56
2022-10-29T09:40:48.451Z,100611.41
2022-10-29T09:43:34.064Z,100606.38
2022-10-29T09:46:13.412Z,100607.81
2022-10-29T09:48:52.948Z,100593.16
2022-10-29T09:51:34.730Z,100594.03
2022-10-29T09:54:03.626Z,100590.31
2022-10-29T09:56:33.611Z,100592.00
2022-10-29T09:59:13.828Z,100578.66
2022-10-29T10:01:42.321Z,100579.28
2022-10-29T10:04:22.026Z,100580.94
2022-10-29T10:07:06.512Z,100572.72
2022-10-29T10:09:57.332Z,100571.16
2022-10-29T10:12:29.647Z,100566.38
2022-10-29T10:15:08.767Z,100571.25
2022-10-29T10:18:02.561Z,100551.75
2022-10-29T10:20:38.650Z,100551.03
2022-10-29T10:23:24.564Z,100545.50
2022-10-29T10:25:57.635Z,100539.94
2022-10-29T10:28:34.544Z,100534.09
2022-10-29T10:31:14.839Z,100533.88
2022-10-29T10:33:52.033Z,100527.22
2022-10-29T10:36:26.587Z,100529.16
2022-10-29T10:38:57.645Z,100523.81
2022-10-29T10:41:30.099Z,100523.06
2022-10-29T10:44:03.235Z,100524.41
2022-10-29T10:46:35.936Z,100521.22
2022-10-29T10:49:09.340Z,100508.16
2022-10-29T10:51:39.298Z,100499.88
2022-10-29T10:54:29.814Z,100506.88
2022-10-29T10:57:01.302Z,100518.13
2022-10-29T10:59:48.449Z,100509.31
2022-10-29T11:02:27.406Z,100499.97
2022-10-29T11:05:03.703Z,100499.44
2022-10-29T11:07:41.583Z,100486.84
2022-10-29T11:10:14.868Z,100490.56
2022-10-29T11:12:47.891Z,100475.56
2022-10-29T11:15:25.811Z,100464.88
2022-10-29T11:17:58.065Z,100468.88
2022-10-29T11:20:32.015Z,100469.66
2022-10-29T11:23:21.658Z,100470.19
2022-10-29T11:25:55.992Z,100469.63
2022-10-29T11:28:31.855Z,100459.13
2022-10-29T11:31:11.877Z,100455.38
2022-10-29T11:33:52.342Z,100454.50
2022-10-29T11:36:23.532Z,100454.47
2022-10-29T11:38:59.182Z,100448.00
2022-10-29T11:41:35.228Z,100452.78
2022-10-29T11:44:03.654Z,100453.03
2022-10-29T11:46:42.653Z,100453.81
2022-10-29T11:49:33.337Z,100443.84
2022-10-29T11:52:09.809Z,100446.72
2022-10-29T11:55:02.091Z,100442.41
2022-10-29T11:57:38.099Z,100446.41
2022-10-29T12:00:17.401Z,100439.69
2022-10-29T12:03:12.417Z,100442.91
2022-10-29T12:05:47.277Z,100438.28
2022-10-29T12:08:35.004Z,100438.00
2022-10-29T12:11:09.285Z,100439.56
2022-10-29T12:13:49.988Z,100443.31
2022-10-29T12:16:40.983Z,100431.47
2022-10-29T12:19:23.315Z,100435.22
2022-10-29T12:22:00.254Z,100433.03
2022-10-29T12:24:44.658Z,100425.19
2022-10-29T12:27:22.422Z,100425.44
2022-10-29T12:29:59.043Z,100420.59
2022-10-29T12:32:35.105Z,100414.91
2022-10-29T12:35:17.174Z,100414.66
2022-10-29T12:37:55.215Z,100406.81
2022-10-29T12:40:27.598Z,100404.38
2022-10-29T12:42:58.094Z,100399.50
2022-10-29T12:45:43.377Z,100395.69
2022-10-29T12:48:23.015Z,100389.75
2022-10-29T12:51:08.016Z,100391.88
2022-10-29T12:53:44.205Z,100392.41
2022-10-29T12:56:16.386Z,100377.88
2022-10-29T12:58:52.746Z,100374.09
2022-10-29T13:02:11.686Z,100379.47
2022-10-29T13:04:39.736Z,100376.22
2022-10-29T13:07:24.757Z,100390.19
2022-10-29T13:10:41.295Z,100388.56
2022-10-29T13:13:38.390Z,100392.34
2022-10-29T13:16:15.608Z,100393.38
2022-10-29T13:19:06.263Z,100380.44
2022-10-29T13:22:05.427Z,100365.88
2022-10-29T13:24:35.665Z,100365.03
2022-10-29T13:27:33.721Z,100364.47
2022-10-29T13:30:25.482Z,100357.75
2022-10-29T13:32:54.680Z,100365.78
2022-10-29T13:35:43.045Z,100349.84
2022-10-29T13:38:16.046Z,100362.97
2022-10-29T13:41:11.873Z,100356.47
2022-10-29T13:43:42.640Z,100343.25
2022-10-29T13:46:43.988Z,100348.38
2022-10-29T13:49:18.927Z,100346.16
2022-10-29T13:52:00.770Z,100354.78
2022-10-29T13:54:39.919Z,100344.50
2022-10-29T13:57:20.678Z,100347.72
2022-10-29T13:59:55.995Z,100347.41
2022-10-29T14:02:36.765Z,100341.75
2022-10-29T14:05:19.799Z,100333.94
2022-10-29T14:07:56.953Z,100348.16
2022-10-29T14:13:08.499Z,100343.31
2022-10-29T14:15:39.190Z,100352.97
2022-10-29T14:18:22.373Z,100341.41
2022-10-29T14:20:56.812Z,100341.91
2022-10-29T14:23:25.989Z,100340.31
2022-10-29T14:25:56.596Z,100348.63
2022-10-29T14:28:30.068Z,100334.34
2022-10-29T14:31:05.246Z,100344.81
2022-10-29T14:33:36.209Z,100340.63
2022-10-29T14:36:17.740Z,100345.69
2022-10-29T14:38:51.424Z,100356.78
2022-10-29T14:41:21.377Z,100347.06
2022-10-29T14:44:02.837Z,100340.66
2022-10-29T14:46:33.331Z,100342.03
2022-10-29T14:49:12.668Z,100343.44
2022-10-29T14:51:50.721Z,100337.03
2022-10-29T14:54:25.585Z,100332.22
2022-10-29T14:56:58.759Z,100330.38
2022-10-29T14:59:31.161Z,100334.38
2022-10-29T15:02:17.127Z,100334.94
2022-10-29T15:04:59.028Z,100336.59
2022-10-29T15:07:34.426Z,100320.00
2022-10-29T15:10:22.903Z,100331.06
2022-10-29T15:12:52.725Z,100324.38
2022-10-29T15:15:29.807Z,100327.63
2022-10-29T15:18:05.819Z,100325.50
2022-10-29T15:20:46.609Z,100321.56
2022-10-29T15:23:24.992Z,100329.91
2022-10-29T15:25:59.557Z,100319.19
2022-10-29T15:28:31.796Z,100327.84
2022-10-29T15:31:06.119Z,100324.13
2022-10-29T15:33:38.484Z,100329.53
2022-10-29T15:36:07.819Z,100327.41
2022-10-29T15:39:10.615Z,100317.56
2022-10-29T15:41:46.081Z,100320.03
2022-10-29T15:44:38.595Z,100341.88
2022-10-29T15:47:29.351Z,100341.63
2022-10-29T15:49:57.759Z,100330.34
2022-10-29T15:52:33.126Z,100337.38
2022-10-29T15:55:02.219Z,100337.94
2022-10-29T15:57:31.570Z,100341.47
2022-10-29T16:00:06.631Z,100332.06
2022-10-29T16:02:36.610Z,100337.22
2022-10-29T16:05:06.396Z,100331.09
2022-10-29T16:07:35.146Z,100332.72
2022-10-29T16:10:03.789Z,100341.34
2022-10-29T16:12:33.164Z,100341.88
2022-10-29T16:15:01.686Z,100341.94
2022-10-29T16:17:30.308Z,100333.91
2022-10-29T16:20:00.369Z,100346.84
2022-10-29T16:22:31.652Z,100339.31
2022-10-29T16:25:00.201Z,100330.22
2022-10-29T16:27:28.735Z,100309.84
2022-10-29T16:29:57.192Z,100324.91
2022-10-29T16:32:26.249Z,100323.31
2022-10-29T16:34:54.895Z,100338.34
2022-10-29T16:37:24.808Z,100337.06
2022-10-29T16:39:54.147Z,100344.31
2022-10-29T16:42:34.868Z,100335.78
2022-10-29T16:45:03.382Z,100327.75
2022-10-29T16:47:31.888Z,100319.16
2022-10-29T16:50:00.598Z,100331.28
2022-10-29T16:52:30.511Z,100343.63
2022-10-29T16:54:59.062Z,100317.88
2022-10-29T16:57:29.432Z,100324.88
2022-10-29T16:59:57.993Z,100321.66
2022-10-29T17:02:26.563Z,100346.66
2022-10-29T17:04:54.988Z,100343.97
2022-10-29T17:07:23.464Z,100341.56
2022-10-29T17:09:53.389Z,100332.72
2022-10-29T17:12:21.977Z,100347.78
2022-10-29T17:14:50.511Z,100352.63
2022-10-29T17:17:19.040Z,100336.53
2022-10-29T17:19:47.479Z,100345.97
2022-10-29T17:22:16.503Z,100333.63
2022-10-29T17:24:45.389Z,100343.81
2022-10-29T17:27:15.461Z,100339.28
2022-10-29T17:29:44.026Z,100338.22
2022-10-29T17:32:12.514Z,100340.94
2022-10-29T17:34:40.989Z,100343.88
2022-10-29T17:37:11.421Z,100346.28
2022-10-29T17:39:40.065Z,100335.81
2022-10-29T17:42:08.851Z,100349.22
2022-10-29T17:44:38.780Z,100354.88
2022-10-29T17:47:07.279Z,100347.38
2022-10-29T17:49:35.697Z,100359.16
2022-10-29T17:52:04.493Z,100342.00
2022-10-29T17:54:35.161Z,100358.91
2022-10-29T17:57:03.966Z,100355.97
2022-10-29T17:59:32.419Z,100339.34
2022-10-29T18:02:02.443Z,100363.47
2022-10-29T18:04:30.992Z,100350.09
2022-10-29T18:06:59.485Z,100346.34
2022-10-29T18:09:27.956Z,100360.81
2022-10-29T18:11:56.464Z,100356.53
2022-10-29T18:14:25.028Z,100355.47
2022-10-29T18:16:53.521Z,100355.19
2022-10-29T18:19:23.855Z,100361.88
2022-10-29T18:21:52.373Z,100375.00
2022-10-29T18:24:22.397Z,100358.66
2022-10-29T18:26:51.778Z,100368.88
2022-10-29T18:29:20.428Z,100365.09
2022-10-29T18:31:48.898Z,100376.06
2022-10-29T18:34:17.520Z,100365.09
2022-10-29T18:36:47.941Z,100380.09
2022-10-29T18:39:16.461Z,100376.31
2022-10-29T18:41:44.995Z,100369.88
2022-10-29T18:44:13.573Z,100358.88
2022-10-29T18:46:42.121Z,100380.56
2022-10-29T18:49:13.138Z,100358.88
2022-10-29T18:51:41.878Z,100361.25
2022-10-29T18:54:14.617Z,100351.06
2022-10-29T18:56:43.362Z,100336.34
2022-10-29T18:59:12.793Z,100356.97
2022-10-29T19:01:41.560Z,100354.00
2022-10-29T19:04:15.417Z,100357.75
2022-10-29T19:06:44.565Z,100354.81
2022-10-29T19:09:14.462Z,100354.00
2022-10-29T19:11:43.049Z,100355.34
2022-10-29T19:14:14.369Z,100355.06
2022-10-29T19:16:42.931Z,100348.34
2022-10-29T19:19:15.197Z,100368.69
2022-10-29T19:21:45.801Z,100353.97
